createdAt,value
2022-09-28T00:01:56.801Z,102554.81
2022-09-28T00:05:20.658Z,102547.19
2022-09-28T00:08:38.692Z,102538.63
2022-09-28T00:12:04.719Z,102534.03
2022-09-28T00:15:29.763Z,102543.38
2022-09-28T00:18:53.656Z,102515.22
2022-09-28T00:22:17.710Z,102502.63
2022-09-28T00:25:41.735Z,102510.50
2022-09-28T00:29:10.698Z,102514.03
2022-09-28T00:32:30.036Z,102505.00
2022-09-28T00:35:46.705Z,102489.44
2022-09-28T00:39:10.717Z,102499.06
2022-09-28T00:42:43.697Z,102499.38
2022-09-28T00:46:34.690Z,102486.13
2022-09-28T00:50:12.775Z,102486.44
2022-09-28T00:53:42.718Z,102476.13
2022-09-28T00:57:06.684Z,102457.19
2022-09-28T01:00:29.757Z,102466.34
2022-09-28T01:03:54.778Z,102463.44
2022-09-28T01:07:17.717Z,102463.63
2022-09-28T01:10:43.680Z,102466.63
2022-09-28T01:14:11.725Z,102453.28
2022-09-28T01:17:41.672Z,102459.47
2022-09-28T01:21:12.719Z,102456.66
2022-09-28T01:24:57.677Z,102457.94
2022-09-28T01:28:29.729Z,102443.97
2022-09-28T01:31:51.339Z,102438.69
2022-09-28T01:35:14.806Z,102421.28
2022-09-28T01:38:45.698Z,102400.50
2022-09-28T01:42:10.717Z,102420.50
2022-09-28T01:45:43.744Z,102399.84
2022-09-28T01:49:13.789Z,102398.50
2022-09-28T01:52:52.699Z,102386.06
2022-09-28T01:56:24.833Z,102398.59
2022-09-28T01:59:49.798Z,102378.81
2022-09-28T02:03:14.851Z,102366.94
2022-09-28T02:06:58.724Z,102361.81
2022-09-28T02:10:28.723Z,102350.22
2022-09-28T02:13:55.708Z,102342.47
2022-09-28T02:17:19.750Z,102348.53
2022-09-28T02:20:44.722Z,102354.59
2022-09-28T02:24:21.548Z,102347.34
2022-09-28T02:27:50.747Z,102353.41
2022-09-28T02:31:15.802Z,102350.56
2022-09-28T02:34:41.852Z,102352.97
2022-09-28T02:38:06.771Z,102354.22
2022-09-28T02:41:39.737Z,102358.41
2022-09-28T02:45:28.785Z,102352.13
2022-09-28T02:49:20.876Z,102350.66
2022-09-28T02:53:04.829Z,102344.09
2022-09-28T02:56:53.731Z,102343.38
2022-09-28T03:00:24.757Z,102340.47
2022-09-28T03:03:58.770Z,102340.81
2022-09-28T03:07:26.810Z,102334.94
2022-09-28T03:11:11.798Z,102329.69
2022-09-28T03:14:39.733Z,102332.44
2022-09-28T03:18:04.781Z,102329.59
2022-09-28T03:21:29.763Z,102332.97
2022-09-28T03:24:52.739Z,102329.97
2022-09-28T03:28:16.766Z,102320.75
2022-09-28T03:31:40.771Z,102323.44
2022-09-28T03:35:04.764Z,102319.09
2022-09-28T03:38:28.901Z,102315.59
2022-09-28T03:41:52.729Z,102322.94
2022-09-28T03:45:16.762Z,102319.13
2022-09-28T03:48:43.734Z,102322.50
2022-09-28T03:52:07.756Z,102317.31
2022-09-28T03:55:31.751Z,102314.16
2022-09-28T03:58:55.773Z,102309.97
2022-09-28T04:02:20.808Z,102313.47
2022-09-28T04:05:45.784Z,102313.59
2022-09-28T04:09:09.853Z,102307.63
2022-09-28T04:12:34.792Z,102302.94
2022-09-28T04:16:06.805Z,102313.88
2022-09-28T04:19:34.820Z,102306.69
2022-09-28T04:23:21.766Z,102290.34
2022-09-28T04:26:45.780Z,102289.34
2022-09-28T04:30:01.779Z,102295.53
2022-09-28T04:33:26.742Z,102296.38
2022-09-28T04:36:50.831Z,102297.34
2022-09-28T04:40:14.947Z,102291.81
2022-09-28T04:43:38.775Z,102307.16
2022-09-28T04:47:05.202Z,102300.81
2022-09-28T04:50:57.767Z,102299.03
2022-09-28T04:54:21.883Z,102300.94
2022-09-28T04:57:48.776Z,102293.13
2022-09-28T05:01:15.997Z,102288.56
2022-09-28T05:04:57.754Z,102301.91
2022-09-28T05:08:54.827Z,102300.38
2022-09-28T05:12:18.772Z,102308.72
2022-09-28T05:15:43.818Z,102321.25
2022-09-28T05:19:11.812Z,102319.56
2022-09-28T05:22:34.792Z,102316.63
2022-09-28T05:25:59.779Z,102330.41
2022-09-28T05:29:28.034Z,102328.75
2022-09-28T05:33:01.834Z,102332.31
2022-09-28T05:36:37.786Z,102335.84
2022-09-28T05:40:01.832Z,102320.22
2022-09-28T05:43:25.846Z,102320.19
2022-09-28T05:46:48.829Z,102313.06
2022-09-28T05:50:13.835Z,102326.69
2022-09-28T05:53:38.813Z,102327.13
2022-09-28T05:57:02.818Z,102333.84
2022-09-28T06:00:26.818Z,102340.84
2022-09-28T06:03:51.823Z,102338.84
2022-09-28T06:07:15.877Z,102356.75
2022-09-28T06:10:40.807Z,102355.63
2022-09-28T06:14:03.847Z,102356.59
2022-09-28T06:17:28.827Z,102367.97
2022-09-28T06:21:20.845Z,102376.78
2022-09-28T06:24:44.769Z,102375.63
2022-09-28T06:28:16.843Z,102372.91
2022-09-28T06:31:39.800Z,102362.56
2022-09-28T06:35:04.899Z,102370.44
2022-09-28T06:38:28.836Z,102361.22
2022-09-28T06:41:53.841Z,102361.22
2022-09-28T06:45:21.865Z,102360.22
2022-09-28T06:49:19.572Z,102355.84
2022-09-28T06:53:07.848Z,102353.16
2022-09-28T06:56:46.804Z,102356.84
2022-09-28T07:00:10.855Z,102369.19
2022-09-28T07:03:37.820Z,102375.16
2022-09-28T07:07:31.848Z,102382.09
2022-09-28T07:11:22.850Z,102388.41
2022-09-28T07:15:04.833Z,102399.53
2022-09-28T07:18:28.935Z,102404.22
2022-09-28T07:22:02.746Z,102403.97
2022-09-28T07:25:28.837Z,102408.66
2022-09-28T07:29:18.890Z,102417.19
2022-09-28T07:32:49.841Z,102407.53
2022-09-28T07:36:28.883Z,102397.13
2022-09-28T07:40:11.810Z,102407.94
2022-09-28T07:43:36.894Z,102397.16
2022-09-28T07:47:00.833Z,102406.63
2022-09-28T07:50:57.873Z,102406.72
2022-09-28T07:54:25.861Z,102401.59
2022-09-28T07:58:12.885Z,102402.56
2022-09-28T08:02:12.898Z,102405.78
2022-09-28T08:05:39.866Z,102407.91
2022-09-28T08:09:04.907Z,102410.59
2022-09-28T08:12:48.870Z,102405.19
2022-09-28T08:16:26.919Z,102406.31
2022-09-28T08:20:29.884Z,102400.66
2022-09-28T08:23:54.879Z,102396.13
2022-09-28T08:27:18.887Z,102392.44
2022-09-28T08:30:42.901Z,102382.84
2022-09-28T08:34:30.888Z,102375.88
2022-09-28T08:38:08.865Z,102381.78
2022-09-28T08:42:09.901Z,102378.78
2022-09-28T08:45:44.551Z,102381.22
2022-09-28T08:49:38.883Z,102378.94
2022-09-28T08:53:30.861Z,102373.94
2022-09-28T08:57:07.864Z,102363.38
2022-09-28T09:00:35.894Z,102353.94
2022-09-28T09:03:59.867Z,102350.22
2022-09-28T09:07:54.912Z,102351.59
2022-09-28T09:11:25.903Z,102352.84
2022-09-28T09:15:14.912Z,102343.16
2022-09-28T09:18:53.970Z,102358.09
2022-09-28T09:22:49.882Z,102355.03
2022-09-28T09:26:48.892Z,102358.84
2022-09-28T09:30:33.929Z,102358.25
2022-09-28T09:34:19.056Z,102349.97
2022-09-28T09:38:35.864Z,102357.06
2022-09-28T09:42:58.903Z,102356.28
2022-09-28T09:46:38.931Z,102354.03
2022-09-28T09:50:13.884Z,102355.44
2022-09-28T09:53:51.923Z,102346.31
2022-09-28T09:57:41.887Z,102339.47
2022-09-28T10:01:25.955Z,102335.69
2022-09-28T10:05:25.881Z,102336.97
2022-09-28T10:08:52.927Z,102327.44
2022-09-28T10:12:20.890Z,102327.81
2022-09-28T10:15:47.907Z,102323.44
2022-09-28T10:19:27.903Z,102319.31
2022-09-28T10:23:12.938Z,102316.94
2022-09-28T10:27:02.893Z,102314.91
2022-09-28T10:30:38.975Z,102307.00
2022-09-28T10:34:03.927Z,102299.34
2022-09-28T10:37:27.879Z,102287.22
2022-09-28T10:41:06.972Z,102291.03
2022-09-28T10:45:39.964Z,102306.59
2022-09-28T10:49:17.932Z,102298.47
2022-09-28T10:52:57.917Z,102304.47
2022-09-28T10:56:50.930Z,102298.28
2022-09-28T11:00:44.941Z,102292.22
2022-09-28T11:04:19.878Z,102283.78
2022-09-28T11:07:44.945Z,102288.47
2022-09-28T11:11:24.924Z,102277.94
2022-09-28T11:14:56.946Z,102272.38
2022-09-28T11:18:41.929Z,102269.22
2022-09-28T11:22:05.926Z,102256.78
2022-09-28T11:25:32.955Z,102265.13
2022-09-28T11:28:56.945Z,102251.84
2022-09-28T11:32:35.922Z,102253.28
2022-09-28T11:36:29.919Z,102247.09
2022-09-28T11:40:21.944Z,102247.75
2022-09-28T11:44:21.965Z,102241.88
2022-09-28T11:48:19.914Z,102235.19
2022-09-28T11:51:46.969Z,102228.56
2022-09-28T11:55:14.913Z,102234.56
2022-09-28T11:58:50.967Z,102238.34
2022-09-28T12:02:32.021Z,102247.94
2022-09-28T12:06:07.426Z,102253.34
2022-09-28T12:09:39.951Z,102248.97
2022-09-28T12:13:32.963Z,102236.28
2022-09-28T12:17:30.962Z,102247.09
2022-09-28T12:21:00.700Z,102238.97
2022-09-28T12:24:41.956Z,102242.94
2022-09-28T12:28:13.965Z,102249.78
2022-09-28T12:32:03.979Z,102247.81
2022-09-28T12:35:39.962Z,102251.72
2022-09-28T12:39:57.146Z,102248.19
2022-09-28T12:43:25.941Z,102247.97
2022-09-28T12:47:14.018Z,102239.06
2022-09-28T12:50:57.681Z,102244.06
2022-09-28T12:54:34.969Z,102231.41
2022-09-28T12:58:13.968Z,102236.34
2022-09-28T13:02:13.032Z,102237.66
2022-09-28T13:05:56.987Z,102236.16
2022-09-28T13:09:33.942Z,102227.47
2022-09-28T13:13:33.990Z,102218.13
2022-09-28T13:17:14.947Z,102212.78
2022-09-28T13:21:00.978Z,102211.53
2022-09-28T13:24:32.653Z,102211.09
2022-09-28T13:28:00.988Z,102193.88
2022-09-28T13:31:27.926Z,102206.31
2022-09-28T13:34:55.987Z,102199.47
2022-09-28T13:38:31.999Z,102193.69
2022-09-28T13:42:03.977Z,102193.28
2022-09-28T13:45:39.996Z,102207.22
2022-09-28T13:49:22.970Z,102207.00
2022-09-28T13:52:55.997Z,102203.06
2022-09-28T13:56:24.577Z,102199.91
2022-09-28T13:59:42.994Z,102193.50
2022-09-28T14:03:18.975Z,102184.16
2022-09-28T14:06:48.720Z,102177.75
2022-09-28T14:10:36.973Z,102168.44
2022-09-28T14:14:15.003Z,102157.25
2022-09-28T14:17:38.981Z,102169.47
2022-09-28T14:21:22.025Z,102167.44
2022-09-28T14:24:56.004Z,102168.66
2022-09-28T14:28:45.991Z,102173.44
2022-09-28T14:32:15.985Z,102174.47
2022-09-28T14:36:04.005Z,102157.66
2022-09-28T14:40:04.033Z,102156.03
2022-09-28T14:43:48.995Z,102147.50
2022-09-28T14:47:49.025Z,102135.91
2022-09-28T14:51:42.989Z,102135.72
2022-09-28T14:55:06.026Z,102144.59
2022-09-28T14:58:42.026Z,102128.44
2022-09-28T15:02:26.996Z,102112.09
2022-09-28T15:06:03.040Z,102116.63
2022-09-28T15:09:50.994Z,102117.28
2022-09-28T15:13:50.043Z,102114.78
2022-09-28T15:17:16.028Z,102107.13
2022-09-28T15:20:44.006Z,102101.94
2022-09-28T15:24:01.032Z,102103.59
2022-09-28T15:27:31.015Z,102099.44
2022-09-28T15:30:56.094Z,102101.94
2022-09-28T15:34:38.037Z,102099.66
2022-09-28T15:38:03.034Z,102101.09
2022-09-28T15:41:28.015Z,102101.09
2022-09-28T15:44:56.057Z,102097.78
2022-09-28T15:48:35.014Z,102094.69
2022-09-28T15:52:11.048Z,102094.25
2022-09-28T15:55:35.010Z,102093.22
2022-09-28T15:58:59.047Z,102080.19
2022-09-28T16:02:34.063Z,102068.75
2022-09-28T16:06:22.023Z,102061.53
2022-09-28T16:09:46.029Z,102068.78
2022-09-28T16:13:13.019Z,102073.50
2022-09-28T16:16:46.511Z,102065.44
2022-09-28T16:20:12.065Z,102067.97
2022-09-28T16:23:36.028Z,102063.19
2022-09-28T16:27:00.061Z,102080.56
2022-09-28T16:30:43.086Z,102063.56
2022-09-28T16:34:11.674Z,102060.31
2022-09-28T16:38:01.080Z,102074.75
2022-09-28T16:41:27.020Z,102066.06
2022-09-28T16:44:51.082Z,102061.28
2022-09-28T16:48:15.058Z,102055.72
2022-09-28T16:51:39.061Z,102050.13
2022-09-28T16:55:39.483Z,102056.53
2022-09-28T16:59:04.083Z,102032.13
2022-09-28T17:02:46.138Z,102039.16
2022-09-28T17:06:11.051Z,102045.56
2022-09-28T17:09:37.088Z,102047.00
2022-09-28T17:13:02.042Z,102058.38
2022-09-28T17:17:06.228Z,102068.13
2022-09-28T17:20:17.048Z,102070.81
2022-09-28T17:23:41.092Z,102070.00
2022-09-28T17:27:09.025Z,102072.28
2022-09-28T17:30:33.127Z,102070.22
2022-09-28T17:33:57.063Z,102068.13
2022-09-28T17:37:22.065Z,102076.88
2022-09-28T17:40:46.123Z,102080.38
2022-09-28T17:44:11.059Z,102044.91
2022-09-28T17:47:36.078Z,102044.69
2022-09-28T17:51:01.081Z,102043.22
2022-09-28T17:54:28.065Z,102046.75
2022-09-28T17:57:51.066Z,102050.09
2022-09-28T18:01:15.155Z,102059.84
2022-09-28T18:04:51.803Z,102061.88
2022-09-28T18:08:16.093Z,102061.06
2022-09-28T18:11:41.062Z,102062.94
2022-09-28T18:15:05.131Z,102062.94
2022-09-28T18:18:29.064Z,102056.13
2022-09-28T18:21:53.120Z,102066.44
2022-09-28T18:25:17.066Z,102055.66
2022-09-28T18:28:40.081Z,102065.19
2022-09-28T18:32:05.077Z,102067.84
2022-09-28T18:35:29.079Z,102074.72
2022-09-28T18:38:54.102Z,102071.19
2022-09-28T18:42:18.064Z,102066.78
2022-09-28T18:45:43.101Z,102065.09
2022-09-28T18:49:07.080Z,102064.88
2022-09-28T18:52:25.098Z,102072.53
2022-09-28T18:55:49.073Z,102062.06
2022-09-28T18:59:15.131Z,102061.19
2022-09-28T19:02:31.771Z,102065.06
2022-09-28T19:05:53.086Z,102072.31
2022-09-28T19:09:17.153Z,102073.91
2022-09-28T19:12:41.095Z,102079.66
2022-09-28T19:16:05.111Z,102074.84
2022-09-28T19:19:32.129Z,102070.13
2022-09-28T19:22:56.100Z,102064.00
2022-09-28T19:26:26.139Z,102067.31
2022-09-28T19:29:50.092Z,102059.66
2022-09-28T19:33:15.138Z,102056.81
2022-09-28T19:36:41.082Z,102048.75
2022-09-28T19:40:04.145Z,102045.56
2022-09-28T19:43:30.096Z,102052.59
2022-09-28T19:46:54.120Z,102056.78
2022-09-28T19:50:18.078Z,102052.63
2022-09-28T19:53:46.134Z,102058.78
2022-09-28T19:57:15.108Z,102061.94
2022-09-28T20:00:39.142Z,102056.00
2022-09-28T20:03:57.689Z,102049.78
2022-09-28T20:07:15.169Z,102046.94
2022-09-28T20:10:39.084Z,102038.38
2022-09-28T20:14:03.159Z,102042.63
2022-09-28T20:17:29.112Z,102032.72
2022-09-28T20:20:55.144Z,102034.34
2022-09-28T20:24:19.108Z,102025.16
2022-09-28T20:27:43.135Z,102024.47
2022-09-28T20:31:07.218Z,102032.97
2022-09-28T20:34:31.156Z,102033.28
2022-09-28T20:37:58.152Z,102021.44
2022-09-28T20:41:26.130Z,102010.75
2022-09-28T20:44:51.174Z,102011.25
2022-09-28T20:48:17.116Z,102015.69
2022-09-28T20:51:42.170Z,102010.03
2022-09-28T20:55:06.126Z,102009.19
2022-09-28T20:58:29.177Z,102008.50
2022-09-28T21:01:53.141Z,102009.19
2022-09-28T21:05:17.154Z,102012.75
2022-09-28T21:08:41.138Z,102004.88
2022-09-28T21:12:05.166Z,102017.09
2022-09-28T21:15:30.194Z,102019.47
2022-09-28T21:18:55.173Z,102022.50
2022-09-28T21:22:19.151Z,102036.56
2022-09-28T21:25:43.154Z,102034.91
2022-09-28T21:29:11.161Z,102022.34
2022-09-28T21:32:35.194Z,102022.34
2022-09-28T21:35:59.160Z,102015.22
2022-09-28T21:39:23.187Z,102011.63
2022-09-28T21:42:47.168Z,102001.97
2022-09-28T21:46:11.212Z,101989.28
2022-09-28T21:49:36.149Z,101999.69
2022-09-28T21:53:00.185Z,102003.13
2022-09-28T21:56:26.159Z,101996.41
2022-09-28T21:59:50.191Z,101991.41
2022-09-28T22:03:08.851Z,101991.97
2022-09-28T22:06:29.210Z,101995.84
2022-09-28T22:09:54.180Z,101998.06
2022-09-28T22:13:19.185Z,101992.09
2022-09-28T22:16:46.210Z,101996.50
2022-09-28T22:20:10.160Z,101992.09
2022-09-28T22:23:33.209Z,101980.53
2022-09-28T22:26:58.157Z,101980.00
2022-09-28T22:30:21.187Z,101981.56
2022-09-28T22:33:45.146Z,101980.03
2022-09-28T22:37:09.219Z,101980.34
2022-09-28T22:40:34.183Z,101980.28
2022-09-28T22:43:57.205Z,101979.97
2022-09-28T22:47:21.165Z,101977.72
2022-09-28T22:50:44.199Z,101973.78
2022-09-28T22:54:09.161Z,101978.84
2022-09-28T22:57:35.211Z,101986.94
2022-09-28T23:01:00.193Z,101976.06
2022-09-28T23:04:24.222Z,101983.00
2022-09-28T23:07:49.202Z,101971.53
2022-09-28T23:11:13.213Z,101967.75
2022-09-28T23:14:37.220Z,101962.41
2022-09-28T23:18:01.235Z,101960.75
2022-09-28T23:21:29.209Z,101962.59
2022-09-28T23:24:53.219Z,101949.38
2022-09-28T23:28:18.211Z,101939.53
2022-09-28T23:31:37.256Z,101950.53
2022-09-28T23:35:02.245Z,101951.47
2022-09-28T23:38:30.200Z,101949.81
2022-09-28T23:41:55.233Z,101949.91
2022-09-28T23:45:20.185Z,101950.72
2022-09-28T23:48:45.252Z,101949.00
2022-09-28T23:52:09.208Z,101952.19
2022-09-28T23:55:33.249Z,101948.91
2022-09-28T23:58:58.180Z,101948.50
